Time;durP1;ratioP1;P1;durP2;ratioP2;P2;SDS_P1;SDS_P2;PMS_P1;PMS_P2;Temp;Humidity;BMP_temperature;BMP_pressure;BME280_temperature;BME280_humidity;BME280_pressure;Samples;Min_cycle;Max_cycle;Signal;HPM_P1;HPM_P2
2023/10/18 00:01:21;;;;;;;0.95;0.77;;;2.30;97.10;;;;;;5006597;28;20501;-67
2023/10/18 00:03:46;;;;;;;0.98;0.63;;;2.20;97.00;;;;;;5007481;28;20037;-67
2023/10/18 00:06:15;;;;;;;0.68;0.50;;;2.20;97.00;;;;;;5005473;28;20104;-67
2023/10/18 00:08:41;;;;;;;0.98;0.60;;;2.20;97.10;;;;;;5006334;28;20106;-67
2023/10/18 00:11:06;;;;;;;0.95;0.50;;;2.30;97.40;;;;;;5011582;28;20125;-68
2023/10/18 00:13:33;;;;;;;1.33;0.70;;;2.30;97.30;;;;;;5003314;28;20168;-68
2023/10/18 00:16:06;;;;;;;0.60;0.60;;;2.30;97.40;;;;;;5012333;28;20113;-68
2023/10/18 00:18:35;;;;;;;1.80;0.77;;;2.20;97.30;;;;;;4999503;28;20109;-67
2023/10/18 00:21:06;;;;;;;1.60;0.80;;;2.20;97.30;;;;;;5007642;28;20104;-67
2023/10/18 00:23:32;;;;;;;0.40;0.40;;;2.10;97.30;;;;;;5008973;28;20029;-66
2023/10/18 00:26:03;;;;;;;1.08;0.70;;;2.10;97.30;;;;;;5007958;28;20104;-67
2023/10/18 00:28:29;;;;;;;1.70;0.70;;;2.10;97.30;;;;;;5012678;28;20037;-68
2023/10/18 00:30:54;;;;;;;1.05;0.50;;;2.10;97.40;;;;;;5010968;28;20479;-67
2023/10/18 00:33:20;;;;;;;1.27;0.57;;;2.10;97.40;;;;;;5013342;28;20038;-67
2023/10/18 00:35:48;;;;;;;0.73;0.57;;;2.00;97.30;;;;;;5010325;28;20467;-67
2023/10/18 00:38:18;;;;;;;1.02;0.52;;;2.00;97.30;;;;;;5010202;28;20390;-69
2023/10/18 00:40:45;;;;;;;0.98;0.70;;;2.00;97.30;;;;;;5006298;28;20113;-67
2023/10/18 00:43:22;;;;;;;1.67;0.60;;;1.90;97.30;;;;;;5012797;28;20033;-67
2023/10/18 00:45:50;;;;;;;0.88;0.60;;;1.90;97.40;;;;;;5007587;28;20025;-67
2023/10/18 00:48:34;;;;;;;0.40;0.40;;;1.90;97.40;;;;;;5007516;28;20026;-67
2023/10/18 00:51:00;;;;;;;0.95;0.68;;;1.90;97.40;;;;;;5008430;28;20069;-67
2023/10/18 00:53:30;;;;;;;0.90;0.63;;;1.90;97.40;;;;;;5012432;28;20069;-68
2023/10/18 00:55:59;;;;;;;0.55;0.55;;;1.90;97.50;;;;;;5006011;28;20034;-67
2023/10/18 00:58:29;;;;;;;2.75;0.70;;;1.90;97.60;;;;;;5010370;28;20038;-67
2023/10/18 01:01:01;;;;;;;2.63;0.80;;;1.90;97.60;;;;;;5001877;28;20335;-68
2023/10/18 01:03:35;;;;;;;0.80;0.68;;;1.90;97.70;;;;;;5000371;28;20023;-67
2023/10/18 01:06:08;;;;;;;1.27;0.52;;;1.90;97.80;;;;;;5007704;28;20429;-67
2023/10/18 01:08:37;;;;;;;1.10;0.55;;;1.90;97.60;;;;;;5004874;28;20046;-67
2023/10/18 01:11:04;;;;;;;1.30;0.70;;;2.10;98.00;;;;;;5008626;28;20030;-67
2023/10/18 01:13:36;;;;;;;1.48;0.80;;;2.10;97.80;;;;;;5012391;28;20083;-68
2023/10/18 01:16:08;;;;;;;2.20;0.90;;;2.10;98.00;;;;;;5006060;28;20045;-67
2023/10/18 01:18:34;;;;;;;0.70;0.50;;;2.10;98.00;;;;;;5009092;28;20030;-67
2023/10/18 01:21:13;;;;;;;1.08;0.73;;;2.10;98.00;;;;;;5006081;28;20426;-67
2023/10/18 01:23:42;;;;;;;0.90;0.65;;;2.10;98.00;;;;;;5008447;28;20080;-68
2023/10/18 01:26:13;;;;;;;0.98;0.60;;;2.10;98.00;;;;;;5009682;28;20057;-67
2023/10/18 01:28:39;;;;;;;0.70;0.68;;;2.00;97.90;;;;;;5000302;28;20525;-67
2023/10/18 01:31:05;;;;;;;0.85;0.75;;;2.00;98.00;;;;;;5003128;28;20478;-67
2023/10/18 01:33:39;;;;;;;2.53;0.70;;;2.00;98.00;;;;;;5009666;28;20018;-67
2023/10/18 01:36:06;;;;;;;0.60;0.60;;;1.90;97.90;;;;;;4999061;28;20034;-68
2023/10/18 01:38:31;;;;;;;1.40;0.80;;;1.90;98.00;;;;;;5011841;28;20030;-67
2023/10/18 01:41:00;;;;;;;1.00;0.77;;;1.90;98.00;;;;;;5004437;28;20038;-66
2023/10/18 01:43:28;;;;;;;1.60;0.82;;;1.80;97.90;;;;;;5007528;28;20042;-67
2023/10/18 01:45:54;;;;;;;0.95;0.70;;;1.80;97.90;;;;;;5001903;28;20038;-67
2023/10/18 01:48:19;;;;;;;0.88;0.68;;;1.80;97.80;;;;;;5011458;28;20445;-67
2023/10/18 01:50:46;;;;;;;0.85;0.70;;;1.80;98.00;;;;;;5027044;28;20030;-68
2023/10/18 01:53:20;;;;;;;1.10;0.77;;;1.90;98.20;;;;;;5002381;28;20120;-67
2023/10/18 01:55:53;;;;;;;1.48;0.60;;;1.90;98.20;;;;;;5005583;28;20034;-67
2023/10/18 01:58:24;;;;;;;1.10;0.90;;;2.00;98.30;;;;;;5008200;28;20029;-68
2023/10/18 02:00:51;;;;;;;;;;;2.10;98.40;;;;;;5009413;28;20029;-68
2023/10/18 02:03:19;;;;;;;0.57;0.47;;;2.10;98.30;;;;;;5007848;28;19913;-67
2023/10/18 02:05:46;;;;;;;0.77;0.77;;;2.00;98.30;;;;;;5004757;28;20033;-67
2023/10/18 02:08:11;;;;;;;1.00;0.90;;;2.00;98.30;;;;;;5007740;28;20125;-67
2023/10/18 02:10:40;;;;;;;1.02;0.75;;;2.00;98.30;;;;;;5008805;28;20455;-68
2023/10/18 02:13:08;;;;;;;1.13;0.80;;;1.90;98.30;;;;;;4998915;28;20030;-67
2023/10/18 02:15:35;;;;;;;0.80;0.70;;;1.90;98.20;;;;;;5007751;28;20093;-68
2023/10/18 02:18:00;;;;;;;1.08;0.52;;;1.80;98.20;;;;;;5009634;28;20034;-67
2023/10/18 02:20:26;;;;;;;1.10;0.80;;;1.80;98.20;;;;;;5010169;28;20030;-67
2023/10/18 02:22:59;;;;;;;0.60;0.52;;;1.90;98.40;;;;;;5008843;28;20053;-68
2023/10/18 02:28:09;;;;;;;1.30;1.00;;;1.80;98.20;;;;;;5002667;28;20095;-67
2023/10/18 02:30:41;;;;;;;1.48;0.63;;;1.80;98.20;;;;;;5008065;28;20030;-67
2023/10/18 02:33:06;;;;;;;2.08;1.00;;;1.70;98.30;;;;;;5008540;28;20048;-67
2023/10/18 02:35:33;;;;;;;1.73;0.90;;;1.70;98.30;;;;;;5007120;28;20397;-67
2023/10/18 02:38:08;;;;;;;0.68;0.55;;;1.70;98.20;;;;;;5006705;28;20135;-68
2023/10/18 02:40:38;;;;;;;0.95;0.47;;;1.60;98.30;;;;;;5010731;28;20022;-67
2023/10/18 02:43:08;;;;;;;1.07;0.77;;;1.60;98.30;;;;;;5004387;28;20062;-67
2023/10/18 02:45:33;;;;;;;0.73;0.50;;;1.60;98.30;;;;;;4995350;28;20296;-68
2023/10/18 02:48:00;;;;;;;1.10;0.70;;;1.50;98.30;;;;;;5010597;28;20065;-68
2023/10/18 02:50:26;;;;;;;1.05;0.60;;;1.50;98.30;;;;;;5005579;28;20099;-67
2023/10/18 02:52:53;;;;;;;0.75;0.50;;;1.50;98.40;;;;;;5003405;28;20025;-67
2023/10/18 02:55:19;;;;;;;1.17;0.77;;;1.50;98.40;;;;;;5004989;28;20037;-67
2023/10/18 02:57:48;;;;;;;2.40;1.10;;;1.60;98.50;;;;;;5008349;28;20040;-67
2023/10/18 03:00:17;;;;;;;0.55;0.55;;;1.60;98.60;;;;;;5009297;28;20026;-67
2023/10/18 03:02:42;;;;;;;0.88;0.63;;;1.70;98.60;;;;;;5008117;28;20030;-67
2023/10/18 03:05:10;;;;;;;1.05;0.70;;;1.70;98.60;;;;;;5004348;28;20442;-67
2023/10/18 03:07:36;;;;;;;0.95;0.70;;;1.70;98.70;;;;;;5005138;28;20117;-67
2023/10/18 03:10:11;;;;;;;2.13;0.90;;;1.70;98.60;;;;;;5005182;28;20124;-67
2023/10/18 03:12:37;;;;;;;1.60;0.77;;;1.80;98.60;;;;;;5004622;28;20034;-67
2023/10/18 03:15:08;;;;;;;1.08;0.65;;;1.70;98.60;;;;;;5006302;28;20037;-68
2023/10/18 03:17:37;;;;;;;;;;;1.70;98.60;;;;;;5000983;28;20029;-67
2023/10/18 03:22:49;;;;;;;2.33;1.02;;;1.60;98.70;;;;;;5008285;28;20040;-67
2023/10/18 03:25:16;;;;;;;0.60;0.60;;;1.60;98.60;;;;;;5008506;28;20053;-67
2023/10/18 03:27:49;;;;;;;1.25;0.70;;;1.50;98.60;;;;;;5004933;28;20033;-67
2023/10/18 03:30:18;;;;;;;1.45;0.85;;;1.50;98.60;;;;;;5009580;28;20033;-68
2023/10/18 03:32:49;;;;;;;1.17;0.68;;;1.60;98.80;;;;;;5009886;28;20064;-67
2023/10/18 03:35:21;;;;;;;0.88;0.60;;;1.60;98.70;;;;;;5008289;28;20030;-67
2023/10/18 03:37:47;;;;;;;1.20;0.70;;;1.60;98.80;;;;;;5002760;28;20424;-68
2023/10/18 03:40:29;;;;;;;1.00;0.73;;;1.50;98.70;;;;;;5007414;28;20048;-67
2023/10/18 03:42:55;;;;;;;0.70;0.70;;;1.60;98.90;;;;;;5008700;28;20030;-67
2023/10/18 03:45:43;;;;;;;1.75;0.95;;;1.50;98.70;;;;;;5001777;28;20084;-67
2023/10/18 03:48:23;;;;;;;1.50;0.80;;;1.50;98.80;;;;;;5004928;28;20038;-68
2023/10/18 03:50:48;;;;;;;1.27;0.60;;;1.40;98.70;;;;;;5002162;28;20018;-67
2023/10/18 03:53:14;;;;;;;1.88;0.80;;;1.50;98.80;;;;;;5006698;28;20030;-67
2023/10/18 03:55:42;;;;;;;1.73;0.80;;;1.40;98.80;;;;;;4998146;28;20045;-67
2023/10/18 03:58:08;;;;;;;1.65;0.73;;;1.40;98.90;;;;;;5003244;28;20026;-68
2023/10/18 04:00:43;;;;;;;0.60;0.60;;;1.40;98.70;;;;;;5005064;28;20072;-67
2023/10/18 04:03:12;;;;;;;2.58;1.00;;;1.40;98.80;;;;;;5004112;28;20030;-67
2023/10/18 04:05:42;;;;;;;1.23;0.80;;;1.30;98.70;;;;;;5005576;28;20033;-67
2023/10/18 04:08:13;;;;;;;2.42;1.10;;;1.30;98.80;;;;;;5005874;28;20118;-67
2023/10/18 04:10:40;;;;;;;0.82;0.68;;;1.20;98.70;;;;;;5007900;28;20394;-68
2023/10/18 04:13:11;;;;;;;1.95;1.08;;;1.50;99.10;;;;;;5008527;28;20120;-67
2023/10/18 04:15:45;;;;;;;2.05;1.15;;;1.50;99.00;;;;;;5006280;28;20022;-67
2023/10/18 04:18:12;;;;;;;2.35;1.05;;;1.60;99.10;;;;;;5010310;28;20033;-67
2023/10/18 04:20:41;;;;;;;2.25;0.93;;;1.70;99.20;;;;;;5013713;28;20022;-67
2023/10/18 04:23:21;;;;;;;1.77;1.13;;;1.60;99.00;;;;;;5003866;28;20041;-67
2023/10/18 04:26:03;;;;;;;2.85;1.20;;;1.60;99.00;;;;;;5010311;28;20042;-67
2023/10/18 04:28:31;;;;;;;0.95;0.70;;;1.50;99.00;;;;;;5001965;28;20030;-66
2023/10/18 04:31:00;;;;;;;1.23;0.90;;;1.40;99.00;;;;;;5009379;28;20034;-65
2023/10/18 04:33:34;;;;;;;3.15;1.42;;;1.40;98.90;;;;;;5012530;28;20062;-64
2023/10/18 04:36:06;;;;;;;1.55;1.10;;;1.30;98.90;;;;;;5012335;28;20436;-64
2023/10/18 04:38:36;;;;;;;2.83;1.13;;;1.30;99.00;;;;;;4998600;28;20081;-64
2023/10/18 04:41:08;;;;;;;1.40;0.98;;;1.20;99.00;;;;;;5002569;28;20109;-64
2023/10/18 04:43:37;;;;;;;1.85;1.00;;;1.20;99.00;;;;;;5006985;28;20398;-64
2023/10/18 04:54:00;;;;;;;1.42;0.75;;;1.40;99.10;;;;;;5007674;28;20156;-64
2023/10/18 04:56:34;;;;;;;2.88;0.80;;;1.60;99.40;;;;;;5011368;28;20037;-63
2023/10/18 04:59:09;;;;;;;2.70;1.60;;;1.70;99.40;;;;;;5001022;28;20134;-64
2023/10/18 05:01:36;;;;;;;3.17;1.25;;;1.70;99.20;;;;;;5000265;28;20064;-65
2023/10/18 05:04:18;;;;;;;1.17;1.00;;;1.60;99.30;;;;;;5004995;28;20026;-64
2023/10/18 05:07:00;;;;;;;2.55;1.58;;;1.60;99.10;;;;;;5007280;28;20057;-64
2023/10/18 05:09:34;;;;;;;2.75;1.42;;;1.60;99.20;;;;;;5004615;28;20073;-64
2023/10/18 05:14:42;;;;;;;2.13;1.15;;;1.50;99.20;;;;;;5010199;28;20433;-64
2023/10/18 05:17:17;;;;;;;3.40;1.50;;;1.50;99.30;;;;;;5000772;28;20026;-64
2023/10/18 05:19:47;;;;;;;2.75;1.25;;;1.40;99.20;;;;;;5005945;28;20030;-64
2023/10/18 05:22:35;;;;;;;3.45;1.70;;;1.40;99.20;;;;;;5004975;28;20053;-65
2023/10/18 05:27:47;;;;;;;2.80;1.63;;;1.50;99.20;;;;;;5009760;28;20032;-65
2023/10/18 05:30:16;;;;;;;2.33;1.20;;;1.40;99.30;;;;;;5008201;28;20069;-64
2023/10/18 05:35:35;;;;;;;2.00;1.25;;;1.30;99.30;;;;;;5002291;28;20093;-65
2023/10/18 05:38:18;;;;;;;3.33;1.23;;;1.40;99.40;;;;;;5008562;28;20026;-65
2023/10/18 05:40:55;;;;;;;1.95;1.33;;;1.60;99.60;;;;;;5008562;28;20375;-64
2023/10/18 05:43:30;;;;;;;2.88;1.38;;;1.70;99.60;;;;;;5003165;28;20022;-64
2023/10/18 05:45:57;;;;;;;2.60;1.23;;;1.60;99.40;;;;;;5006510;28;20038;-65
2023/10/18 05:48:23;;;;;;;2.25;1.20;;;1.70;99.50;;;;;;5011297;28;20121;-64
2023/10/18 05:50:49;;;;;;;3.28;1.23;;;1.70;99.40;;;;;;5007339;28;20109;-65
2023/10/18 05:53:18;;;;;;;2.95;1.65;;;1.70;99.50;;;;;;5005673;28;20066;-64
2023/10/18 05:55:52;;;;;;;2.63;1.65;;;1.70;99.50;;;;;;5022233;28;20089;-65
2023/10/18 05:58:25;;;;;;;2.15;1.15;;;1.60;99.40;;;;;;5001056;28;20038;-65
2023/10/18 06:00:55;;;;;;;2.00;1.23;;;1.70;99.40;;;;;;5007182;28;20049;-65
2023/10/18 06:03:22;;;;;;;3.08;1.98;;;1.60;99.50;;;;;;5009107;28;20089;-64
2023/10/18 06:05:51;;;;;;;3.72;1.35;;;1.60;99.40;;;;;;5005162;28;20038;-65
2023/10/18 06:08:18;;;;;;;2.70;1.42;;;1.60;99.40;;;;;;5008620;28;20474;-66
2023/10/18 06:10:44;;;;;;;3.50;1.75;;;1.60;99.40;;;;;;5010023;28;20077;-64
2023/10/18 06:13:20;;;;;;;3.47;1.60;;;1.60;99.40;;;;;;5009295;28;20038;-64
2023/10/18 06:15:50;;;;;;;2.88;1.55;;;1.80;99.60;;;;;;5005722;28;20073;-64
2023/10/18 06:18:18;;;;;;;2.33;1.40;;;1.90;99.70;;;;;;5005137;28;20041;-66
2023/10/18 06:20:45;;;;;;;2.97;1.30;;;1.90;99.40;;;;;;5011292;28;20049;-64
2023/10/18 06:25:57;;;;;;;2.90;1.20;;;2.00;99.50;;;;;;5010048;28;20096;-64
2023/10/18 06:28:24;;;;;;;2.22;1.38;;;2.30;99.80;;;;;;5011089;28;20431;-64
2023/10/18 06:30:51;;;;;;;3.45;1.42;;;2.30;99.70;;;;;;5008011;28;20104;-65
2023/10/18 06:33:21;;;;;;;3.47;1.73;;;2.30;99.60;;;;;;5010519;28;20056;-64
2023/10/18 06:35:52;;;;;;;2.03;1.23;;;2.30;99.40;;;;;;4999115;28;20026;-64
2023/10/18 06:38:24;;;;;;;3.05;1.50;;;2.50;99.70;;;;;;5007938;28;20037;-64
2023/10/18 06:41:00;;;;;;;2.15;1.05;;;2.60;99.70;;;;;;5003172;28;20030;-65
2023/10/18 06:43:29;;;;;;;3.50;1.30;;;2.60;99.60;;;;;;5004123;28;20379;-64
2023/10/18 06:45:55;;;;;;;1.50;1.25;;;2.80;99.70;;;;;;5000278;28;20070;-65
2023/10/18 06:48:31;;;;;;;2.33;1.27;;;2.90;99.80;;;;;;5003712;28;20057;-65
2023/10/18 06:50:57;;;;;;;2.72;1.48;;;3.10;99.80;;;;;;5005228;28;20037;-65
2023/10/18 06:53:25;;;;;;;2.92;1.50;;;3.20;99.80;;;;;;5002158;28;20070;-65
2023/10/18 06:55:58;;;;;;;2.85;1.58;;;3.30;99.80;;;;;;5003899;28;20126;-65
2023/10/18 07:00:55;;;;;;;2.38;1.33;;;3.60;99.80;;;;;;5003137;28;20045;-66
2023/10/18 07:03:25;;;;;;;2.92;1.27;;;3.70;99.70;;;;;;5015363;28;20037;-64
2023/10/18 07:05:52;;;;;;;3.03;1.85;;;3.80;99.70;;;;;;5000140;28;20041;-65
2023/10/18 07:08:32;;;;;;;3.80;1.75;;;3.80;99.50;;;;;;4998643;28;20029;-65
2023/10/18 07:11:01;;;;;;;5.38;1.80;;;3.90;99.50;;;;;;5001967;28;20686;-65
2023/10/18 07:13:38;;;;;;;3.22;2.33;;;4.00;99.50;;;;;;5002015;28;20100;-64
2023/10/18 07:16:11;;;;;;;3.42;1.60;;;4.00;99.40;;;;;;4998282;28;20041;-64
2023/10/18 07:18:37;;;;;;;1.75;1.27;;;4.10;99.40;;;;;;5000171;28;20080;-64
2023/10/18 07:21:06;;;;;;;2.35;0.95;;;4.10;99.30;;;;;;5000965;28;20042;-68
2023/10/18 07:23:36;;;;;;;2.35;1.00;;;4.20;99.30;;;;;;5006147;28;20062;-65
2023/10/18 07:26:02;;;;;;;2.65;1.45;;;4.20;99.20;;;;;;5009584;28;20486;-65
2023/10/18 07:28:29;;;;;;;2.95;1.50;;;4.30;99.10;;;;;;4994493;28;20419;-64
2023/10/18 07:30:55;;;;;;;1.85;1.25;;;4.30;99.10;;;;;;5003319;28;20026;-65
2023/10/18 07:33:23;;;;;;;5.32;1.95;;;4.50;99.00;;;;;;5009055;28;20034;-65
2023/10/18 07:35:49;;;;;;;2.22;1.20;;;4.50;98.90;;;;;;4993487;28;20026;-66
2023/10/18 07:38:14;;;;;;;2.90;1.55;;;4.60;98.90;;;;;;5005529;28;20038;-66
2023/10/18 07:40:43;;;;;;;2.97;1.80;;;4.60;98.70;;;;;;4999912;28;20034;-65
2023/10/18 07:43:12;;;;;;;2.60;1.40;;;4.60;98.60;;;;;;5010700;28;20084;-65
2023/10/18 07:45:45;;;;;;;3.60;1.70;;;4.70;98.50;;;;;;5008274;28;20034;-64
2023/10/18 07:48:11;;;;;;;3.88;1.73;;;4.80;98.50;;;;;;5011149;28;20029;-65
2023/10/18 07:53:05;;;;;;;2.08;1.05;;;5.00;98.40;;;;;;5010434;28;20120;-66
2023/10/18 07:55:37;;;;;;;2.70;1.60;;;5.00;98.10;;;;;;5014536;28;20030;-65
2023/10/18 07:58:17;;;;;;;3.40;1.40;;;5.20;98.20;;;;;;5011762;28;20034;-64
2023/10/18 08:01:07;;;;;;;2.55;1.38;;;5.40;98.30;;;;;;5010504;28;20038;-66
2023/10/18 08:03:32;;;;;;;2.92;1.45;;;5.60;98.00;;;;;;5007035;28;20408;-65
2023/10/18 08:05:59;;;;;;;3.95;1.52;;;5.70;97.90;;;;;;5008246;28;20525;-65
2023/10/18 08:08:25;;;;;;;2.75;1.35;;;5.90;97.70;;;;;;5005355;28;20559;-64
2023/10/18 08:10:55;;;;;;;3.88;1.73;;;6.00;97.00;;;;;;5006281;28;20121;-65
2023/10/18 08:13:28;;;;;;;3.55;2.05;;;6.30;97.30;;;;;;5007343;28;20030;-65
2023/10/18 08:15:56;;;;;;;2.90;1.63;;;6.50;97.10;;;;;;5009868;28;20053;-67
2023/10/18 08:18:42;;;;;;;3.53;1.92;;;6.50;96.20;;;;;;5004537;28;20117;-68
2023/10/18 08:21:08;;;;;;;3.70;1.90;;;6.60;96.10;;;;;;4999333;28;20034;-65
2023/10/18 08:23:34;;;;;;;2.92;1.52;;;6.80;95.70;;;;;;5011635;28;20069;-65
2023/10/18 08:26:04;;;;;;;3.42;1.88;;;6.90;95.30;;;;;;5017906;28;20054;-64
2023/10/18 08:28:40;;;;;;;5.20;1.98;;;7.10;95.20;;;;;;5009701;28;20100;-65
2023/10/18 08:31:34;;;;;;;3.05;1.70;;;7.10;94.60;;;;;;4998492;28;20080;-65
2023/10/18 08:34:06;;;;;;;3.22;1.70;;;7.10;93.10;;;;;;4999409;28;20080;-65
2023/10/18 08:36:32;;;;;;;3.20;1.80;;;7.40;93.80;;;;;;5002657;28;20084;-65
2023/10/18 08:38:59;;;;;;;3.92;1.58;;;7.60;93.60;;;;;;5004660;28;20079;-65
2023/10/18 08:41:32;;;;;;;4.38;2.22;;;7.70;93.60;;;;;;5000784;28;20035;-65
2023/10/18 08:44:08;;;;;;;3.15;1.60;;;7.80;93.00;;;;;;5007068;28;20108;-65
2023/10/18 08:46:40;;;;;;;3.05;1.52;;;7.80;91.60;;;;;;5000156;28;20104;-66
2023/10/18 08:49:08;;;;;;;3.30;1.60;;;7.80;91.30;;;;;;5006826;28;20029;-67
2023/10/18 08:51:35;;;;;;;2.75;1.38;;;7.90;92.10;;;;;;5002358;28;20033;-66
2023/10/18 08:54:02;;;;;;;2.92;1.58;;;7.80;90.10;;;;;;4998874;28;20090;-65
2023/10/18 08:56:33;;;;;;;2.95;1.40;;;8.00;90.90;;;;;;5001074;28;20037;-65
2023/10/18 08:59:07;;;;;;;2.33;1.30;;;8.10;90.60;;;;;;4998363;28;20070;-66
2023/10/18 09:01:34;;;;;;;3.13;1.60;;;8.10;90.00;;;;;;4998354;28;20034;-67
2023/10/18 09:03:59;;;;;;;2.63;1.70;;;8.10;88.50;;;;;;5001635;28;20034;-65
2023/10/18 09:06:31;;;;;;;2.17;1.38;;;8.10;88.40;;;;;;5001046;28;20046;-67
2023/10/18 09:09:05;;;;;;;2.47;1.33;;;8.10;88.60;;;;;;4998024;28;20390;-66
2023/10/18 09:11:32;;;;;;;2.88;0.98;;;8.20;89.40;;;;;;4997615;28;20434;-65
2023/10/18 09:14:07;;;;;;;2.72;1.27;;;8.30;87.80;;;;;;4996804;28;20030;-65
2023/10/18 09:16:40;;;;;;;2.28;1.15;;;8.50;88.30;;;;;;4998204;28;20461;-65
2023/10/18 09:19:10;;;;;;;2.55;1.55;;;8.70;87.90;;;;;;4997836;28;20069;-66
2023/10/18 09:21:36;;;;;;;2.55;1.33;;;8.90;86.60;;;;;;4997067;28;20031;-66
2023/10/18 09:24:06;;;;;;;2.50;1.40;;;8.90;84.90;;;;;;4995426;28;20034;-65
2023/10/18 09:26:41;;;;;;;2.58;1.27;;;9.20;85.90;;;;;;4999455;28;20046;-65
2023/10/18 09:29:10;;;;;;;3.15;1.50;;;9.20;83.40;;;;;;4993612;28;20470;-66
2023/10/18 09:31:53;;;;;;;2.05;1.40;;;9.30;83.60;;;;;;4997404;28;20071;-68
2023/10/18 09:34:20;;;;;;;2.67;1.40;;;9.20;83.00;;;;;;4996181;28;20050;-66
2023/10/18 09:36:54;;;;;;;1.67;0.98;;;9.50;83.40;;;;;;4999292;28;20034;-65
2023/10/18 09:39:21;;;;;;;1.77;1.13;;;9.50;82.00;;;;;;4998942;28;20112;-66
2023/10/18 09:41:47;;;;;;;2.00;0.80;;;9.60;82.50;;;;;;4997710;28;20045;-67
2023/10/18 09:44:13;;;;;;;1.30;0.95;;;9.80;83.00;;;;;;4994149;28;20506;-65
2023/10/18 09:46:38;;;;;;;1.30;0.70;;;9.80;81.60;;;;;;5000594;28;20565;-65
2023/10/18 09:49:09;;;;;;;2.20;0.90;;;9.70;80.10;;;;;;5001556;28;20038;-66
2023/10/18 09:51:36;;;;;;;;;;;10.10;81.00;;;;;;5001908;28;20061;-66
2023/10/18 09:54:07;;;;;;;1.15;0.75;;;10.30;81.60;;;;;;5005801;28;19909;-65
2023/10/18 09:56:34;;;;;;;1.38;0.80;;;10.50;81.10;;;;;;5005798;28;20536;-65
2023/10/18 09:59:05;;;;;;;1.45;0.73;;;10.30;78.30;;;;;;5005060;28;20023;-66
2023/10/18 10:04:12;;;;;;;0.82;0.70;;;10.30;79.20;;;;;;5000541;28;20133;-66
2023/10/18 10:06:45;;;;;;;1.52;0.90;;;10.40;80.50;;;;;;4997270;28;20436;-66
2023/10/18 10:09:12;;;;;;;0.57;0.55;;;10.30;79.10;;;;;;5005151;28;20033;-65
2023/10/18 10:11:43;;;;;;;1.73;0.95;;;10.20;79.60;;;;;;4998902;28;20030;-65
2023/10/18 10:14:10;;;;;;;2.08;1.15;;;10.20;79.90;;;;;;4998605;28;20430;-66
2023/10/18 10:16:39;;;;;;;1.42;0.68;;;10.40;79.20;;;;;;4994273;28;20053;-66
2023/10/18 10:19:11;;;;;;;2.17;0.98;;;10.60;80.90;;;;;;4997284;28;20040;-67
2023/10/18 10:21:37;;;;;;;1.02;0.80;;;10.70;79.30;;;;;;4994702;28;20032;-67
2023/10/18 10:24:29;;;;;;;1.23;0.80;;;10.80;77.10;;;;;;4998741;28;20045;-65
2023/10/18 10:26:52;;;;;;;1.10;0.70;;;10.80;77.80;;;;;;4994716;28;20061;-65
2023/10/18 10:32:04;;;;;;;2.15;0.90;;;11.00;76.90;;;;;;4999471;28;20107;-65
2023/10/18 10:34:32;;;;;;;1.52;0.77;;;11.30;78.20;;;;;;5005892;28;20083;-65
2023/10/18 10:37:09;;;;;;;1.10;0.77;;;11.40;76.00;;;;;;5008873;28;20454;-65
2023/10/18 10:39:36;;;;;;;1.02;0.75;;;11.60;76.00;;;;;;4998419;28;20087;-64
2023/10/18 10:42:08;;;;;;;1.83;0.95;;;11.50;74.70;;;;;;4994231;28;20493;-65
2023/10/18 10:44:54;;;;;;;1.33;0.80;;;11.50;74.30;;;;;;4997042;28;20371;-66
2023/10/18 10:47:29;;;;;;;1.63;0.77;;;11.10;74.10;;;;;;5001586;28;20034;-66
2023/10/18 10:49:59;;;;;;;1.73;0.60;;;11.40;74.40;;;;;;5005304;28;20029;-66
2023/10/18 10:52:29;;;;;;;1.10;0.90;;;11.30;73.20;;;;;;5007239;28;20033;-66
2023/10/18 10:55:15;;;;;;;0.82;0.73;;;11.40;74.00;;;;;;5000926;28;20034;-66
2023/10/18 10:57:46;;;;;;;1.70;0.68;;;11.80;75.80;;;;;;5005999;28;20888;-67
2023/10/18 11:03:33;;;;;;;1.52;0.88;;;11.80;74.10;;;;;;4936651;28;20050;-68
2023/10/18 11:05:59;;;;;;;1.27;0.77;;;11.80;74.00;;;;;;4988412;28;20042;-67
2023/10/18 11:08:27;;;;;;;1.00;0.60;;;12.10;73.70;;;;;;4994102;28;20046;-68
2023/10/18 11:10:54;;;;;;;1.98;0.68;;;12.30;73.90;;;;;;5005737;28;20046;-66
2023/10/18 11:13:22;;;;;;;1.08;0.68;;;12.50;73.90;;;;;;4994512;28;20030;-67
2023/10/18 11:15:50;;;;;;;2.45;0.70;;;12.30;70.50;;;;;;4999604;28;20116;-67
2023/10/18 11:18:22;;;;;;;1.90;0.90;;;12.40;73.40;;;;;;4994079;28;20042;-68
2023/10/18 11:20:58;;;;;;;1.13;0.77;;;12.70;73.10;;;;;;4999833;28;20041;-69
2023/10/18 11:23:29;;;;;;;1.60;0.70;;;12.40;71.60;;;;;;5005048;28;20368;-66
2023/10/18 11:25:56;;;;;;;1.20;0.70;;;12.80;72.90;;;;;;4927765;28;995928;-70
2023/10/18 11:28:29;;;;;;;1.48;0.60;;;12.70;70.80;;;;;;4978482;28;20026;-67
2023/10/18 11:30:56;;;;;;;0.95;0.60;;;13.00;71.30;;;;;;4997900;28;20030;-68
2023/10/18 11:33:37;;;;;;;1.60;0.70;;;12.60;70.50;;;;;;5000224;28;20367;-67
2023/10/18 11:36:08;;;;;;;1.60;0.85;;;12.60;70.30;;;;;;4994091;28;20030;-68
2023/10/18 11:38:34;;;;;;;1.92;0.93;;;12.80;71.40;;;;;;4999130;28;20048;-67
2023/10/18 11:41:04;;;;;;;2.22;0.88;;;12.30;70.20;;;;;;5000597;28;20371;-68
2023/10/18 11:43:39;;;;;;;1.48;0.73;;;12.10;71.10;;;;;;5002351;28;20427;-66
2023/10/18 11:46:06;;;;;;;2.00;0.70;;;12.60;71.90;;;;;;5002213;28;20426;-67
2023/10/18 11:48:33;;;;;;;0.88;0.60;;;12.60;69.90;;;;;;5001327;28;20109;-67
2023/10/18 11:50:58;;;;;;;1.83;0.82;;;12.90;71.00;;;;;;5000120;28;20505;-68
2023/10/18 11:53:26;;;;;;;2.13;0.93;;;12.70;68.60;;;;;;4996921;28;20037;-67
2023/10/18 11:55:55;;;;;;;0.95;0.60;;;13.10;69.00;;;;;;4999087;28;20030;-67
2023/10/18 11:58:23;;;;;;;0.50;0.40;;;13.60;70.00;;;;;;4997538;28;20487;-68
2023/10/18 12:00:49;;;;;;;0.70;0.60;;;13.60;70.50;;;;;;5001430;28;20040;-67
2023/10/18 12:03:15;;;;;;;1.08;0.60;;;13.00;67.80;;;;;;4999968;28;20137;-66
2023/10/18 12:05:44;;;;;;;1.13;0.52;;;13.10;70.20;;;;;;5002019;28;20173;-67
2023/10/18 12:08:13;;;;;;;0.45;0.40;;;12.80;68.80;;;;;;5001642;28;20602;-67
2023/10/18 12:10:39;;;;;;;0.85;0.50;;;13.30;70.80;;;;;;5001884;28;20030;-66
2023/10/18 12:13:12;;;;;;;1.50;0.80;;;13.50;70.20;;;;;;5000451;28;20168;-67
2023/10/18 12:15:38;;;;;;;1.40;0.82;;;14.10;69.80;;;;;;5002322;28;20026;-67
2023/10/18 12:18:05;;;;;;;1.38;0.85;;;14.00;66.00;;;;;;5003604;28;20053;-68
2023/10/18 12:20:43;;;;;;;1.08;0.50;;;14.10;67.90;;;;;;5003678;28;20081;-67
2023/10/18 12:23:13;;;;;;;0.82;0.52;;;14.20;66.30;;;;;;4993701;28;20696;-67
2023/10/18 12:25:42;;;;;;;0.75;0.38;;;14.30;66.80;;;;;;5006651;28;20514;-66
2023/10/18 12:28:12;;;;;;;0.43;0.40;;;14.10;65.30;;;;;;4996039;28;20081;-66
2023/10/18 12:30:43;;;;;;;1.15;0.70;;;13.60;65.50;;;;;;5007712;28;20041;-66
2023/10/18 12:33:19;;;;;;;0.77;0.45;;;13.10;66.70;;;;;;5005694;28;20120;-66
2023/10/18 12:35:45;;;;;;;1.48;0.50;;;13.10;66.20;;;;;;5005514;28;20080;-66
2023/10/18 12:38:14;;;;;;;1.67;0.85;;;13.00;66.40;;;;;;4995905;28;20034;-66
2023/10/18 12:40:41;;;;;;;1.15;0.60;;;13.10;66.90;;;;;;5005586;28;20125;-66
2023/10/18 12:43:07;;;;;;;0.55;0.55;;;13.10;65.60;;;;;;4999909;28;20558;-66
2023/10/18 12:45:45;;;;;;;2.42;0.63;;;13.40;66.30;;;;;;4997047;28;20364;-67
2023/10/18 12:48:11;;;;;;;1.23;1.13;;;13.40;66.20;;;;;;5005571;28;20024;-67
2023/10/18 12:50:45;;;;;;;0.88;0.50;;;13.30;65.70;;;;;;5002480;28;20510;-66
2023/10/18 12:53:37;;;;;;;1.33;1.00;;;13.40;67.50;;;;;;5008848;28;20029;-66
2023/10/18 12:55:57;;;;;;;1.33;0.80;;;13.20;65.10;;;;;;5000922;28;20042;-66
2023/10/18 12:58:29;;;;;;;1.88;0.73;;;13.00;67.20;;;;;;5004166;28;20513;-66
2023/10/18 13:01:05;;;;;;;1.55;0.73;;;13.60;67.20;;;;;;5000061;28;20680;-67
2023/10/18 13:03:34;;;;;;;2.47;0.88;;;13.70;65.10;;;;;;4993156;28;20046;-66
2023/10/18 13:06:00;;;;;;;1.23;0.60;;;13.90;65.90;;;;;;5001892;28;20375;-67
2023/10/18 13:08:35;;;;;;;1.05;0.63;;;14.00;64.80;;;;;;5005528;28;20033;-69
2023/10/18 13:13:30;;;;;;;1.50;0.90;;;14.10;65.70;;;;;;5000083;28;20517;-68
2023/10/18 13:15:57;;;;;;;0.93;0.50;;;14.00;66.00;;;;;;5002451;28;20043;-68
2023/10/18 13:18:25;;;;;;;1.52;0.73;;;14.30;66.80;;;;;;5001559;28;20111;-67
2023/10/18 13:20:55;;;;;;;1.42;0.80;;;14.10;64.30;;;;;;5000056;28;20034;-67
2023/10/18 13:23:27;;;;;;;0.90;0.80;;;13.60;64.10;;;;;;5002413;28;20355;-66
2023/10/18 13:25:53;;;;;;;1.05;0.70;;;14.00;65.90;;;;;;4999441;28;20046;-67
2023/10/18 13:28:24;;;;;;;1.42;0.90;;;13.40;64.70;;;;;;4995581;28;20034;-68
2023/10/18 13:30:51;;;;;;;1.40;0.68;;;13.40;64.60;;;;;;5003576;28;20021;-66
2023/10/18 13:33:18;;;;;;;2.35;1.08;;;13.00;64.70;;;;;;5008679;28;20113;-66
2023/10/18 13:35:44;;;;;;;2.00;0.80;;;13.60;66.40;;;;;;5001598;28;20061;-66
2023/10/18 13:38:11;;;;;;;2.08;1.00;;;13.60;64.40;;;;;;5003952;28;20037;-66
2023/10/18 13:40:39;;;;;;;2.67;0.93;;;13.20;66.70;;;;;;5007659;28;20042;-67
2023/10/18 13:43:06;;;;;;;1.95;0.90;;;13.50;67.40;;;;;;5001712;28;20342;-65
2023/10/18 13:45:33;;;;;;;0.95;0.57;;;13.90;65.30;;;;;;4996519;28;20053;-66
2023/10/18 13:47:59;;;;;;;1.33;0.50;;;13.10;66.70;;;;;;4994531;28;20053;-68
2023/10/18 13:50:26;;;;;;;1.85;0.82;;;13.10;65.90;;;;;;5007993;28;20459;-66